^^
Your Local Weather - Clay, NY Station Historical Data
Daily Summary for May 10, 2017 Units:  English    Metric   Both
« Previous Day
Next Day »
Daily Weekly Monthly Yearly Custom
  High: Low: Average:
Temperature: 53.5 °F 29.6 °F 42.5 °F
Dew Point: 36.4 °F 27.3 °F 31.8 °F
Humidity: 93% 46% 68%
Wind Speed: 3.0mph 0.0mph 0.9mph
Wind Gust: 6.0mph - -
Wind- - SW
Pressure: 30.09 in 30.03 in -
Precipitation: 0.00 in    
Historical Graphs
 
 
Tabular Data for May 10, 2017
Time Temperature Dew Point Pressure Wind Wind Speed Wind Gust Humidity Rainfall Rate (Hourly) solar
00:02 35.7 °F 31.0 °F 30.03 in Calm     83% 0.00 in 0 W/m2
00:08 35.6 °F 30.9 °F 30.03 in Calm     83% 0.00 in 0 W/m2
00:14 35.4 °F 31.0 °F 30.03 in Calm     84% 0.00 in 0 W/m2
00:20 35.3 °F 30.9 °F 30.03 in Calm     84% 0.00 in 0 W/m2
00:26 35.1 °F 30.8 °F 30.03 in Calm     84% 0.00 in 0 W/m2
00:32 35.0 °F 30.7 °F 30.03 in Calm     84% 0.00 in 0 W/m2
00:38 34.8 °F 30.8 °F 30.03 in Calm     85% 0.00 in 0 W/m2
00:46 34.5 °F 30.5 °F 30.03 in Calm     85% 0.00 in 0 W/m2
00:52 34.2 °F 30.2 °F 30.03 in Calm     85% 0.00 in 0 W/m2
00:58 34.1 °F 30.4 °F 30.03 in Calm     86% 0.00 in 0 W/m2
01:04 34.1 °F 30.4 °F 30.03 in Calm   2.0 mph 86% 0.00 in 0 W/m2
01:10 34.2 °F 30.7 °F 30.03 in Calm     87% 0.00 in 0 W/m2
01:16 34.1 °F 30.6 °F 30.03 in Calm     87% 0.00 in 0 W/m2
01:22 33.9 °F 30.4 °F 30.03 in Calm     87% 0.00 in 0 W/m2
01:28 33.6 °F 30.1 °F 30.03 in Calm     87% 0.00 in 0 W/m2
01:34 33.5 °F 30.0 °F 30.03 in Calm     87% 0.00 in 0 W/m2
01:40 33.2 °F 29.8 °F 30.03 in Calm     87% 0.00 in 0 W/m2
01:46 33.1 °F 29.9 °F 30.03 in Calm     88% 0.00 in 0 W/m2
01:52 33.0 °F 29.8 °F 30.03 in Calm     88% 0.00 in 0 W/m2
01:58 32.8 °F 29.6 °F 30.03 in Calm     88% 0.00 in 0 W/m2
02:04 32.6 °F 29.4 °F 30.03 in Calm     88% 0.00 in 0 W/m2
02:10 32.5 °F 29.3 °F 30.03 in Calm     88% 0.00 in 0 W/m2
02:16 32.4 °F 29.5 °F 30.03 in Calm     89% 0.00 in 0 W/m2
02:22 32.3 °F 29.4 °F 30.03 in Calm     89% 0.00 in 0 W/m2
02:28 32.3 °F 29.4 °F 30.03 in Calm     89% 0.00 in 0 W/m2
02:34 32.2 °F 29.3 °F 30.03 in Calm     89% 0.00 in 0 W/m2
02:40 32.1 °F 29.2 °F 30.03 in Calm     89% 0.00 in 0 W/m2
02:46 32.0 °F 29.1 °F 30.03 in Calm     89% 0.00 in 0 W/m2
02:52 31.8 °F 29.2 °F 30.03 in Calm     90% 0.00 in 0 W/m2
02:58 31.7 °F 29.1 °F 30.03 in Calm     90% 0.00 in 0 W/m2
03:04 31.5 °F 28.9 °F 30.03 in Calm     90% 0.00 in 0 W/m2
03:10 31.2 °F 28.6 °F 30.03 in Calm     90% 0.00 in 0 W/m2
03:16 31.0 °F 28.4 °F 30.03 in Calm     90% 0.00 in 0 W/m2
03:22 31.0 °F 28.4 °F 30.03 in Calm     90% 0.00 in 0 W/m2
03:28 30.8 °F 28.2 °F 30.03 in Calm     90% 0.00 in 0 W/m2
03:34 30.7 °F 28.1 °F 30.03 in Calm     90% 0.00 in 0 W/m2
03:40 30.8 °F 28.2 °F 30.03 in Calm     90% 0.00 in 0 W/m2
03:46 30.8 °F 28.2 °F 30.03 in Calm     90% 0.00 in 0 W/m2
03:52 30.7 °F 28.1 °F 30.03 in Calm     90% 0.00 in 0 W/m2
03:58 30.6 °F 28.3 °F 30.03 in Calm     91% 0.00 in 0 W/m2
04:04 30.5 °F 28.2 °F 30.03 in Calm     91% 0.00 in 0 W/m2
04:10 30.4 °F 28.1 °F 30.03 in Calm     91% 0.00 in 0 W/m2
04:16 30.2 °F 27.9 °F 30.03 in Calm     91% 0.00 in 0 W/m2
04:22 30.1 °F 27.8 °F 30.03 in Calm     91% 0.00 in 0 W/m2
04:28 30.1 °F 27.8 °F 30.03 in Calm     91% 0.00 in 0 W/m2
04:34 30.1 °F 27.8 °F 30.04 in Calm     91% 0.00 in 0 W/m2
04:40 30.0 °F 27.7 °F 30.04 in Calm     91% 0.00 in 0 W/m2
04:46 29.9 °F 27.6 °F 30.04 in Calm     91% 0.00 in 0 W/m2
04:52 29.8 °F 27.5 °F 30.04 in Calm     91% 0.00 in 0 W/m2
04:58 29.9 °F 27.6 °F 30.04 in Calm     91% 0.00 in 0 W/m2
05:04 29.9 °F 27.6 °F 30.05 in Calm     91% 0.00 in 0 W/m2
05:10 30.0 °F 27.7 °F 30.05 in Calm     91% 0.00 in 0 W/m2
05:16 30.0 °F 27.7 °F 30.05 in Calm     91% 0.00 in 0 W/m2
05:22 30.0 °F 27.7 °F 30.05 in Calm     91% 0.00 in 0 W/m2
05:28 29.9 °F 27.6 °F 30.05 in Calm     91% 0.00 in 0 W/m2
05:34 29.9 °F 27.9 °F 30.05 in Calm     92% 0.00 in 0 W/m2
05:40 29.8 °F 27.5 °F 30.05 in Calm     91% 0.00 in 0 W/m2
05:46 29.6 °F 27.3 °F 30.05 in Calm     91% 0.00 in 0 W/m2
05:52 29.6 °F 27.6 °F 30.05 in Calm     92% 0.00 in 7 W/m2
05:58 29.7 °F 27.7 °F 30.06 in Calm     92% 0.00 in 9 W/m2
06:04 29.8 °F 27.8 °F 30.06 in Calm     92% 0.00 in 11 W/m2
06:10 29.9 °F 27.9 °F 30.06 in Calm     92% 0.00 in 12 W/m2
06:16 30.1 °F 28.1 °F 30.06 in Calm     92% 0.00 in 18 W/m2
06:22 30.2 °F 28.2 °F 30.06 in Calm     92% 0.00 in 26 W/m2
06:28 30.3 °F 28.3 °F 30.07 in Calm     92% 0.00 in 54 W/m2
06:34 30.9 °F 28.9 °F 30.07 in Calm     92% 0.00 in 76 W/m2
06:40 31.4 °F 29.3 °F 30.07 in Calm     92% 0.00 in 118 W/m2
06:46 32.8 °F 30.7 °F 30.07 in Calm     92% 0.00 in 142 W/m2
06:52 33.6 °F 31.8 °F 30.07 in Calm     93% 0.00 in 155 W/m2
06:58 34.0 °F 31.9 °F 30.08 in Calm     92% 0.00 in 163 W/m2
07:04 34.5 °F 32.4 °F 30.08 in Calm     92% 0.00 in 176 W/m2
07:10 35.3 °F 33.5 °F 30.08 in Calm     93% 0.00 in 190 W/m2
07:16 35.9 °F 33.8 °F 30.08 in Calm     92% 0.00 in 47 W/m2
07:22 35.5 °F 33.4 °F 30.09 in Calm     92% 0.00 in 81 W/m2
07:28 35.6 °F 33.5 °F 30.09 in Calm     92% 0.00 in 295 W/m2
07:34 36.3 °F 34.2 °F 30.08 in Calm     92% 0.00 in 272 W/m2
07:40 37.5 °F 35.1 °F 30.08 in Calm   1.0 mph 91% 0.00 in 278 W/m2
07:46 38.1 °F 35.4 °F 30.08 in North 1.0 mph 1.0 mph 90% 0.00 in 295 W/m2
07:52 38.6 °F 35.1 °F 30.09 in North 1.0 mph 1.0 mph 87% 0.00 in 320 W/m2
07:58 39.0 °F 34.9 °F 30.09 in North 1.0 mph 3.0 mph 85% 0.00 in 341 W/m2
08:04 39.6 °F 34.6 °F 30.09 in North 1.0 mph 4.0 mph 82% 0.00 in 359 W/m2
08:10 40.0 °F 34.3 °F 30.09 in NNW 2.0 mph 2.0 mph 80% 0.00 in 378 W/m2
08:16 40.7 °F 34.7 °F 30.09 in NNW 1.0 mph 2.0 mph 79% 0.00 in 397 W/m2
08:22 41.3 °F 34.3 °F 30.09 in NNW 1.0 mph 3.0 mph 76% 0.00 in 417 W/m2
08:28 42.1 °F 34.7 °F 30.09 in NNW 2.0 mph 4.0 mph 75% 0.00 in 436 W/m2
08:34 42.5 °F 33.8 °F 30.08 in NW 2.0 mph 4.0 mph 71% 0.00 in 450 W/m2
08:40 42.8 °F 34.4 °F 30.09 in NW 2.0 mph 3.0 mph 72% 0.00 in 471 W/m2
08:46 43.3 °F 34.2 °F 30.09 in ENE 3.0 mph 4.0 mph 70% 0.00 in 490 W/m2
08:52 43.9 °F 33.6 °F 30.09 in NE 2.0 mph 3.0 mph 67% 0.00 in 512 W/m2
08:58 44.1 °F 34.2 °F 30.09 in East 3.0 mph 6.0 mph 68% 0.00 in 543 W/m2
09:04 44.9 °F 34.2 °F 30.09 in NNE 3.0 mph 3.0 mph 66% 0.00 in 563 W/m2
09:10 44.8 °F 32.6 °F 30.08 in NE 3.0 mph 3.0 mph 62% 0.00 in 642 W/m2
09:16 44.6 °F 32.8 °F 30.08 in NW 3.0 mph 5.0 mph 63% 0.00 in 156 W/m2
09:22 44.4 °F 32.6 °F 30.08 in NE 3.0 mph 3.0 mph 63% 0.00 in 761 W/m2
09:28 45.2 °F 32.5 °F 30.08 in East 3.0 mph 4.0 mph 61% 0.00 in 807 W/m2
09:34 46.0 °F 32.5 °F 30.08 in North 3.0 mph 4.0 mph 59% 0.00 in 241 W/m2
09:40 45.4 °F 32.3 °F 30.08 in East 3.0 mph 3.0 mph 60% 0.00 in 879 W/m2
09:46 46.1 °F 32.1 °F 30.08 in North 2.0 mph 5.0 mph 58% 0.00 in 218 W/m2
09:52 45.0 °F 31.9 °F 30.08 in NNE 2.0 mph 3.0 mph 60% 0.00 in 207 W/m2
09:58 45.9 °F 32.8 °F 30.08 in NW 2.0 mph 5.0 mph 60% 0.00 in 248 W/m2
10:04 45.6 °F 32.1 °F 30.08 in NW 2.0 mph 6.0 mph 59% 0.00 in 264 W/m2
10:10 46.6 °F 32.2 °F 30.08 in NW 3.0 mph 3.0 mph 57% 0.00 in 214 W/m2
10:16 45.6 °F 31.7 °F 30.08 in NNW 2.0 mph 3.0 mph 58% 0.00 in 220 W/m2
10:22 45.6 °F 32.5 °F 30.08 in NW 1.0 mph 3.0 mph 60% 0.00 in 313 W/m2
10:28 45.6 °F 31.2 °F 30.08 in NW 1.0 mph 4.0 mph 57% 0.00 in 381 W/m2
10:34 45.9 °F 31.1 °F 30.08 in NW 1.0 mph 3.0 mph 56% 0.00 in 306 W/m2
10:40 47.9 °F 34.7 °F 30.08 in WSW 1.0 mph 4.0 mph 60% 0.00 in 905 W/m2
10:46 47.1 °F 32.2 °F 30.08 in WSW 1.0 mph 4.0 mph 56% 0.00 in 285 W/m2
10:52 46.7 °F 30.9 °F 30.08 in NNE 1.0 mph 2.0 mph 54% 0.00 in 313 W/m2
10:58 47.3 °F 34.5 °F 30.08 in WSW 2.0 mph 4.0 mph 61% 0.00 in 1116 W/m2
11:04 48.1 °F 33.1 °F 30.08 in West 1.0 mph 2.0 mph 56% 0.00 in 281 W/m2
11:10 47.3 °F 33.7 °F 30.08 in NNW 1.0 mph 3.0 mph 59% 0.00 in 290 W/m2
11:16 47.2 °F 30.9 °F 30.07 in ENE 2.0 mph 5.0 mph 53% 0.00 in 346 W/m2
11:22 47.0 °F 33.0 °F 30.07 in ENE 2.0 mph 3.0 mph 58% 0.00 in 575 W/m2
11:28 47.8 °F 31.5 °F 30.07 in ENE 1.0 mph 3.0 mph 53% 0.00 in 482 W/m2
11:34 47.7 °F 31.4 °F 30.07 in NNW 1.0 mph 3.0 mph 53% 0.00 in 357 W/m2
11:40 47.3 °F 31.9 °F 30.06 in NW 2.0 mph 2.0 mph 55% 0.00 in 381 W/m2
11:46 47.7 °F 33.6 °F 30.07 in West 1.0 mph 4.0 mph 58% 0.00 in 490 W/m2
11:52 47.6 °F 31.8 °F 30.07 in SSE 2.0 mph 3.0 mph 54% 0.00 in 469 W/m2
11:58 47.7 °F 33.6 °F 30.07 in SSE 2.0 mph 3.0 mph 58% 0.00 in 483 W/m2
12:04 47.8 °F 31.9 °F 30.06 in NNE 2.0 mph 4.0 mph 54% 0.00 in 582 W/m2
12:10 49.2 °F 31.8 °F 30.07 in North 2.0 mph 3.0 mph 51% 0.00 in 534 W/m2
12:16 49.0 °F 33.1 °F 30.07 in WNW 1.0 mph 3.0 mph 54% 0.00 in 374 W/m2
12:22 49.2 °F 31.3 °F 30.06 in WNW 1.0 mph 1.0 mph 50% 0.00 in 396 W/m2
12:28 48.7 °F 33.7 °F 30.06 in SW 2.0 mph 2.0 mph 56% 0.00 in 357 W/m2
12:34 48.5 °F 31.7 °F 30.06 in SSW 2.0 mph 4.0 mph 52% 0.00 in 334 W/m2
12:40 48.0 °F 31.2 °F 30.06 in South 2.0 mph 2.0 mph 52% 0.00 in 353 W/m2
12:46 48.3 °F 31.0 °F 30.06 in SSW 2.0 mph 2.0 mph 51% 0.00 in 394 W/m2
12:52 49.3 °F 31.4 °F 30.06 in South 1.0 mph 3.0 mph 50% 0.00 in 450 W/m2
12:58 49.0 °F 31.6 °F 30.06 in NNW 2.0 mph 5.0 mph 51% 0.00 in 381 W/m2
13:04 49.2 °F 31.8 °F 30.06 in NNW 2.0 mph 2.0 mph 51% 0.00 in 352 W/m2
13:10 49.7 °F 32.8 °F 30.06 in NNW 1.0 mph 1.0 mph 52% 0.00 in 380 W/m2
13:16 49.3 °F 31.4 °F 30.06 in Calm   3.0 mph 50% 0.00 in 371 W/m2
13:22 49.1 °F 31.2 °F 30.06 in NW 1.0 mph 2.0 mph 50% 0.00 in 401 W/m2
13:28 49.6 °F 33.6 °F 30.06 in SW 1.0 mph 2.0 mph 54% 0.00 in 504 W/m2
13:34 49.6 °F 31.2 °F 30.06 in Calm   3.0 mph 49% 0.00 in 450 W/m2
13:40 49.9 °F 32.5 °F 30.06 in WNW 1.0 mph 1.0 mph 51% 0.00 in 439 W/m2
13:46 49.9 °F 31.0 °F 30.06 in WSW 1.0 mph 3.0 mph 48% 0.00 in 406 W/m2
13:52 50.3 °F 32.4 °F 30.06 in NW 2.0 mph 3.0 mph 50% 0.00 in 387 W/m2
13:58 50.5 °F 32.5 °F 30.06 in North 2.0 mph 5.0 mph 50% 0.00 in 374 W/m2
14:04 50.8 °F 32.8 °F 30.05 in NNW 2.0 mph 2.0 mph 50% 0.00 in 427 W/m2
14:10 50.4 °F 33.4 °F 30.06 in SW 1.0 mph 1.0 mph 52% 0.00 in 411 W/m2
14:16 51.0 °F 34.0 °F 30.06 in NNE 2.0 mph 2.0 mph 52% 0.00 in 374 W/m2
14:22 51.2 °F 33.2 °F 30.06 in NW 3.0 mph 3.0 mph 50% 0.00 in 462 W/m2
14:28 51.0 °F 32.0 °F 30.06 in South 2.0 mph 4.0 mph 48% 0.00 in 823 W/m2
14:34 51.6 °F 34.0 °F 30.06 in NNW 2.0 mph 4.0 mph 51% 0.00 in 455 W/m2
14:40 52.3 °F 33.2 °F 30.05 in NNE 3.0 mph 3.0 mph 48% 0.00 in 1020 W/m2
14:46 51.8 °F 32.2 °F 30.05 in NW 3.0 mph 6.0 mph 47% 0.00 in 325 W/m2
14:52 50.8 °F 32.3 °F 30.06 in NNW 3.0 mph 3.0 mph 49% 0.00 in 250 W/m2
14:58 50.6 °F 31.6 °F 30.06 in North 2.0 mph 3.0 mph 48% 0.00 in 199 W/m2
15:04 50.8 °F 33.3 °F 30.06 in North 1.0 mph 2.0 mph 51% 0.00 in 424 W/m2
15:10 51.3 °F 32.8 °F 30.05 in Calm   4.0 mph 49% 0.00 in 313 W/m2
15:16 50.8 °F 31.8 °F 30.05 in NW 2.0 mph 5.0 mph 48% 0.00 in 294 W/m2
15:22 50.6 °F 33.1 °F 30.05 in NNW 3.0 mph 3.0 mph 51% 0.00 in 346 W/m2
15:28 51.0 °F 32.5 °F 30.05 in NNW 1.0 mph 3.0 mph 49% 0.00 in 318 W/m2
15:34 51.3 °F 33.3 °F 30.06 in NNW 1.0 mph 3.0 mph 50% 0.00 in 262 W/m2
15:40 51.1 °F 32.1 °F 30.05 in NE 1.0 mph 1.0 mph 48% 0.00 in 459 W/m2
15:46 51.2 °F 32.2 °F 30.05 in NNE 3.0 mph 6.0 mph 48% 0.00 in 422 W/m2
15:52 51.3 °F 32.8 °F 30.05 in ENE 3.0 mph 3.0 mph 49% 0.00 in 304 W/m2
15:58 52.1 °F 36.4 °F 30.05 in ENE 1.0 mph 3.0 mph 55% 0.00 in 455 W/m2
16:04 52.0 °F 33.4 °F 30.05 in NE 2.0 mph 4.0 mph 49% 0.00 in 264 W/m2
16:10 51.2 °F 31.6 °F 30.05 in ENE 3.0 mph 3.0 mph 47% 0.00 in 294 W/m2
16:16 51.5 °F 34.9 °F 30.05 in NE 2.0 mph 3.0 mph 53% 0.00 in 322 W/m2
16:22 51.6 °F 33.6 °F 30.05 in ESE 2.0 mph 2.0 mph 50% 0.00 in 197 W/m2
16:28 51.2 °F 33.2 °F 30.06 in SE 2.0 mph 2.0 mph 50% 0.00 in 243 W/m2
16:34 50.8 °F 32.3 °F 30.05 in SSE 2.0 mph 3.0 mph 49% 0.00 in 221 W/m2
16:40 51.0 °F 32.5 °F 30.05 in SSE 1.0 mph 1.0 mph 49% 0.00 in 236 W/m2
16:46 51.3 °F 33.8 °F 30.05 in Calm   2.0 mph 51% 0.00 in 216 W/m2
16:52 51.6 °F 33.6 °F 30.06 in East 2.0 mph 3.0 mph 50% 0.00 in 503 W/m2
16:58 52.1 °F 32.5 °F 30.06 in East 1.0 mph 3.0 mph 47% 0.00 in 591 W/m2
17:04 52.8 °F 34.2 °F 30.05 in East 1.0 mph 2.0 mph 49% 0.00 in 197 W/m2
17:10 53.3 °F 34.6 °F 30.05 in ESE 1.0 mph 1.0 mph 49% 0.00 in 294 W/m2
17:16 53.3 °F 33.0 °F 30.05 in SW 1.0 mph 2.0 mph 46% 0.00 in 352 W/m2
17:22 53.5 °F 33.7 °F 30.05 in SW 1.0 mph 2.0 mph 47% 0.00 in 302 W/m2
17:28 53.5 °F 33.7 °F 30.05 in SW 1.0 mph 2.0 mph 47% 0.00 in 283 W/m2
17:34 53.0 °F 32.8 °F 30.05 in SW 2.0 mph 4.0 mph 46% 0.00 in 190 W/m2
17:40 52.9 °F 32.7 °F 30.05 in South 2.0 mph 2.0 mph 46% 0.00 in 158 W/m2
17:46 52.7 °F 34.1 °F 30.05 in West 1.0 mph 2.0 mph 49% 0.00 in 102 W/m2
17:52 53.0 °F 32.8 °F 30.05 in Calm   3.0 mph 46% 0.00 in 88 W/m2
17:58 53.0 °F 33.3 °F 30.05 in West 1.0 mph 3.0 mph 47% 0.00 in 109 W/m2
18:04 52.9 °F 33.2 °F 30.05 in NW 1.0 mph 3.0 mph 47% 0.00 in 91 W/m2
18:10 52.6 °F 32.4 °F 30.05 in NW 2.0 mph 3.0 mph 46% 0.00 in 63 W/m2
18:16 52.5 °F 33.9 °F 30.05 in NNE 2.0 mph 4.0 mph 49% 0.00 in 120 W/m2
18:22 52.6 °F 33.5 °F 30.05 in NNW 1.0 mph 2.0 mph 48% 0.00 in 74 W/m2
18:28 52.5 °F 32.3 °F 30.05 in WSW 1.0 mph 3.0 mph 46% 0.00 in 65 W/m2
18:34 52.6 °F 32.4 °F 30.05 in WSW 1.0 mph 1.0 mph 46% 0.00 in 65 W/m2
18:40 52.5 °F 32.8 °F 30.05 in Calm   3.0 mph 47% 0.00 in 60 W/m2
18:46 52.3 °F 32.6 °F 30.04 in NNW 1.0 mph 3.0 mph 47% 0.00 in 70 W/m2
18:52 52.2 °F 33.1 °F 30.04 in East 1.0 mph 2.0 mph 48% 0.00 in 56 W/m2
18:58 52.1 °F 33.0 °F 30.04 in East 1.0 mph 2.0 mph 48% 0.00 in 60 W/m2
19:06 52.1 °F 32.5 °F 30.05 in NNE 2.0 mph 3.0 mph 47% 0.00 in 62 W/m2
19:12 52.0 °F 32.9 °F 30.05 in North 2.0 mph 5.0 mph 48% 0.00 in 81 W/m2
19:18 51.8 °F 32.7 °F 30.05 in NW 2.0 mph 5.0 mph 48% 0.00 in 60 W/m2
19:24 51.5 °F 33.5 °F 30.05 in NW 2.0 mph 3.0 mph 50% 0.00 in 44 W/m2
19:28 51.2 °F 33.2 °F 30.05 in North 3.0 mph 3.0 mph 50% 0.00 in 33 W/m2
19:34 51.0 °F 33.5 °F 30.05 in NNW 2.0 mph 3.0 mph 51% 0.00 in 25 W/m2
19:40 50.4 °F 32.9 °F 30.05 in NNW 2.0 mph 2.0 mph 51% 0.00 in 21 W/m2
19:46 50.0 °F 33.1 °F 30.05 in North 3.0 mph 4.0 mph 52% 0.00 in 21 W/m2
19:52 49.7 °F 33.2 °F 30.05 in NNW 3.0 mph 3.0 mph 53% 0.00 in 14 W/m2
19:58 49.3 °F 33.3 °F 30.05 in North 2.0 mph 4.0 mph 54% 0.00 in 9 W/m2
20:04 48.9 °F 33.0 °F 30.05 in North 3.0 mph 3.0 mph 54% 0.00 in 7 W/m2
20:10 48.4 °F 33.0 °F 30.05 in North 2.0 mph 4.0 mph 55% 0.00 in 0 W/m2
20:16 48.0 °F 33.0 °F 30.05 in North 2.0 mph 4.0 mph 56% 0.00 in 0 W/m2
20:22 47.6 °F 33.1 °F 30.06 in North 2.0 mph 2.0 mph 57% 0.00 in 0 W/m2
20:28 47.2 °F 33.6 °F 30.06 in North 1.0 mph 2.0 mph 59% 0.00 in 0 W/m2
20:34 46.9 °F 33.3 °F 30.05 in North 1.0 mph 3.0 mph 59% 0.00 in 0 W/m2
20:40 46.6 °F 32.6 °F 30.05 in North 1.0 mph 1.0 mph 58% 0.00 in 0 W/m2
20:46 46.3 °F 33.2 °F 30.05 in North 1.0 mph 2.0 mph 60% 0.00 in 0 W/m2
20:52 46.0 °F 33.7 °F 30.05 in Calm   2.0 mph 62% 0.00 in 0 W/m2
20:58 45.6 °F 33.7 °F 30.05 in Calm   2.0 mph 63% 0.00 in 0 W/m2
21:04 45.2 °F 33.7 °F 30.06 in Calm   2.0 mph 64% 0.00 in 0 W/m2
21:10 44.8 °F 34.1 °F 30.06 in Calm     66% 0.00 in 0 W/m2
21:16 44.4 °F 34.1 °F 30.06 in Calm     67% 0.00 in 0 W/m2
21:22 44.0 °F 34.1 °F 30.06 in Calm     68% 0.00 in 0 W/m2
21:28 43.6 °F 34.5 °F 30.06 in Calm     70% 0.00 in 0 W/m2
21:34 43.2 °F 34.1 °F 30.06 in North 1.0 mph 2.0 mph 70% 0.00 in 0 W/m2
21:40 43.0 °F 33.9 °F 30.06 in North 1.0 mph 1.0 mph 70% 0.00 in 0 W/m2
21:46 42.9 °F 33.8 °F 30.06 in North 1.0 mph 3.0 mph 70% 0.00 in 0 W/m2
21:52 42.9 °F 33.8 °F 30.06 in North 1.0 mph 1.0 mph 70% 0.00 in 0 W/m2
21:58 42.7 °F 33.6 °F 30.06 in North 1.0 mph 2.0 mph 70% 0.00 in 0 W/m2
22:04 42.7 °F 33.9 °F 30.07 in North 1.0 mph 2.0 mph 71% 0.00 in 0 W/m2
22:10 42.5 °F 33.4 °F 30.06 in Calm     70% 0.00 in 0 W/m2
22:16 42.2 °F 33.1 °F 30.07 in Calm     70% 0.00 in 0 W/m2
22:22 41.8 °F 32.7 °F 30.06 in Calm     70% 0.00 in 0 W/m2
22:28 41.6 °F 32.9 °F 30.07 in Calm     71% 0.00 in 0 W/m2
22:34 41.4 °F 32.7 °F 30.07 in Calm     71% 0.00 in 0 W/m2
22:40 41.3 °F 32.6 °F 30.06 in Calm     71% 0.00 in 0 W/m2
22:46 41.2 °F 32.9 °F 30.06 in Calm     72% 0.00 in 0 W/m2
22:52 40.9 °F 33.2 °F 30.06 in Calm     74% 0.00 in 0 W/m2
22:58 40.6 °F 33.0 °F 30.06 in Calm     74% 0.00 in 0 W/m2
23:04 40.1 °F 32.8 °F 30.06 in Calm     75% 0.00 in 0 W/m2
23:12 39.8 °F 32.8 °F 30.06 in Calm     76% 0.00 in 0 W/m2
23:18 39.5 °F 32.6 °F 30.06 in Calm     76% 0.00 in 0 W/m2
23:24 39.3 °F 32.7 °F 30.06 in Calm     77% 0.00 in 0 W/m2
23:30 39.0 °F 32.7 °F 30.06 in Calm     78% 0.00 in 0 W/m2
23:36 38.9 °F 32.6 °F 30.06 in Calm     78% 0.00 in 0 W/m2
23:42 38.6 °F 32.6 °F 30.06 in Calm     79% 0.00 in 0 W/m2
23:48 38.3 °F 32.7 °F 30.06 in Calm     80% 0.00 in 0 W/m2
23:54 37.8 °F 32.2 °F 30.06 in Calm     80% 0.00 in 0 W/m2
Country Meadow, Clay, NY, USA
Compliments of Weather Underground - 2 mb